Terminal Aerodrome Forecast
Issued by NWS

Home | Current Version | Previous Version | Text Only | Print | Product List | Glossary On
Versions: 1 2 3 4 5 6 7 8 9 10 11 12 13 14 15 16 17 18 19 20 21
000
FTUS42 KEYW 202300
TAFMTH
TAF
KMTH 202320Z 2100/2124 33005KT P6SM SCT027 BKN040
     FM210900 01008KT P6SM SCT027=

USA.gov is the U.S. government's official web portal to all federal, state and local government web resources and services.